createdAt,value
2022-10-01T00:03:02.516Z,99043.98
2022-10-01T00:06:06.172Z,99040.50
2022-10-01T00:08:58.881Z,99037.85
2022-10-01T00:11:56.909Z,99039.29
2022-10-01T00:14:48.996Z,99044.70
2022-10-01T00:17:42.211Z,99040.39
2022-10-01T00:20:34.275Z,99027.73
2022-10-01T00:23:30.394Z,99024.26
2022-10-01T00:26:27.385Z,99025.60
2022-10-01T00:29:15.241Z,99016.64
2022-10-01T00:32:07.631Z,99008.40
2022-10-01T00:35:00.483Z,99010.58
2022-10-01T00:37:53.502Z,99017.93
2022-10-01T00:40:48.975Z,99024.41
2022-10-01T00:43:46.546Z,99022.96
2022-10-01T00:46:42.684Z,99024.23
2022-10-01T00:49:38.283Z,99016.64
2022-10-01T00:52:34.663Z,99011.71
2022-10-01T00:55:31.772Z,99011.50
2022-10-01T00:58:28.498Z,99016.32
2022-10-01T01:01:24.408Z,99013.83
2022-10-01T01:04:22.804Z,99003.86
2022-10-01T01:07:21.602Z,99003.29
2022-10-01T01:10:17.141Z,99011.45
2022-10-01T01:13:19.159Z,99009.30
2022-10-01T01:16:18.872Z,99009.45
2022-10-01T01:19:21.860Z,99010.63
2022-10-01T01:22:15.470Z,99010.48
2022-10-01T01:25:17.821Z,99010.84
2022-10-01T01:28:21.866Z,98999.14
2022-10-01T01:31:23.135Z,98994.83
2022-10-01T01:34:14.392Z,98991.49
2022-10-01T01:37:12.099Z,98997.01
2022-10-01T01:40:10.304Z,99008.82
2022-10-01T01:43:05.714Z,99015.73
2022-10-01T01:46:01.340Z,99018.38
2022-10-01T01:48:57.799Z,99012.78
2022-10-01T01:51:54.880Z,99012.52
2022-10-01T01:54:49.907Z,99015.12
2022-10-01T01:57:45.553Z,99018.66
2022-10-01T02:00:37.736Z,99014.80
2022-10-01T02:03:31.065Z,99023.30
2022-10-01T02:06:32.075Z,99029.27
2022-10-01T02:09:30.581Z,99030.89
2022-10-01T02:12:24.083Z,99030.48
2022-10-01T02:15:26.135Z,99029.48
2022-10-01T02:18:30.432Z,99023.05
2022-10-01T02:21:27.113Z,99024.76
2022-10-01T02:24:27.714Z,99017.89
2022-10-01T02:27:34.988Z,99015.90
2022-10-01T02:30:28.882Z,99014.67
2022-10-01T02:33:26.152Z,99022.64
2022-10-01T02:36:22.686Z,99026.80
2022-10-01T02:39:16.761Z,99027.05
2022-10-01T02:42:11.436Z,99030.31
2022-10-01T02:45:07.599Z,99030.77
2022-10-01T02:48:03.234Z,99031.95
2022-10-01T02:51:03.438Z,99035.80
2022-10-01T02:54:02.561Z,99034.27
2022-10-01T02:57:12.453Z,99031.79
2022-10-01T03:00:09.924Z,99026.59
2022-10-01T03:03:02.252Z,99028.60
2022-10-01T03:05:54.424Z,99033.86
2022-10-01T03:08:46.626Z,99032.79
2022-10-01T03:11:38.669Z,99027.38
2022-10-01T03:14:32.415Z,99025.89
2022-10-01T03:17:24.399Z,99020.94
2022-10-01T03:20:16.817Z,99018.66
2022-10-01T03:23:01.716Z,99009.52
2022-10-01T03:25:53.861Z,99006.19
2022-10-01T03:28:48.536Z,99004.14
2022-10-01T03:31:42.626Z,99009.24
2022-10-01T03:34:34.953Z,99008.90
2022-10-01T03:37:29.974Z,99009.69
2022-10-01T03:40:22.153Z,99012.34
2022-10-01T03:43:14.389Z,99009.31
2022-10-01T03:46:06.839Z,99014.13
2022-10-01T03:48:59.755Z,99010.70
2022-10-01T03:51:52.078Z,99005.36
2022-10-01T03:54:44.362Z,99004.40
2022-10-01T03:57:38.685Z,98995.46
2022-10-01T04:00:31.002Z,98999.22
2022-10-01T04:03:25.134Z,98997.19
2022-10-01T04:06:18.150Z,99002.34
2022-10-01T04:09:11.177Z,99002.30
2022-10-01T04:12:05.866Z,99000.27
2022-10-01T04:14:59.355Z,98995.32
2022-10-01T04:17:51.798Z,98993.63
2022-10-01T04:20:44.569Z,98992.32
2022-10-01T04:23:39.940Z,98987.10
2022-10-01T04:26:32.171Z,98985.23
2022-10-01T04:29:15.811Z,98987.90
2022-10-01T04:32:08.090Z,98990.38
2022-10-01T04:35:04.590Z,98992.17
2022-10-01T04:38:01.671Z,98993.01
2022-10-01T04:40:53.975Z,98993.64
2022-10-01T04:43:48.891Z,98993.47
2022-10-01T04:46:41.310Z,98993.77
2022-10-01T04:49:34.639Z,98989.23
2022-10-01T04:52:26.793Z,98987.76
2022-10-01T04:55:21.458Z,98992.56
2022-10-01T04:58:13.506Z,98990.95
2022-10-01T05:01:05.580Z,98994.23
2022-10-01T05:03:57.657Z,98996.69
2022-10-01T05:06:49.633Z,99000.00
2022-10-01T05:09:41.800Z,99005.02
2022-10-01T05:12:34.294Z,99008.05
2022-10-01T05:15:26.256Z,99007.73
2022-10-01T05:18:18.328Z,99009.41
2022-10-01T05:21:11.742Z,99010.08
2022-10-01T05:23:54.332Z,98997.38
2022-10-01T05:26:46.353Z,98996.19
2022-10-01T05:29:38.425Z,98999.31
2022-10-01T05:32:19.415Z,98998.72
2022-10-01T05:35:01.401Z,98999.39
2022-10-01T05:37:57.056Z,99005.40
2022-10-01T05:40:49.294Z,99008.27
2022-10-01T05:43:31.557Z,99017.77
2022-10-01T05:46:23.554Z,99020.23
2022-10-01T05:48:58.801Z,99023.25
2022-10-01T05:51:50.863Z,99024.92
2022-10-01T05:54:32.633Z,99024.42
2022-10-01T05:57:13.793Z,99026.04
2022-10-01T05:59:58.485Z,99035.08
2022-10-01T06:02:38.874Z,99039.37
2022-10-01T06:05:32.909Z,99037.95
2022-10-01T06:08:15.040Z,99033.55
2022-10-01T06:11:07.185Z,99039.70
2022-10-01T06:14:00.522Z,99043.95
2022-10-01T06:16:55.664Z,99047.89
2022-10-01T06:19:47.670Z,99049.95
2022-10-01T06:22:28.654Z,99045.81
2022-10-01T06:25:07.030Z,99040.77
2022-10-01T06:27:39.259Z,99040.31
2022-10-01T06:30:33.511Z,99034.42
2022-10-01T06:33:17.739Z,99031.41
2022-10-01T06:35:59.510Z,99029.17
2022-10-01T06:38:52.063Z,99026.44
2022-10-01T06:41:36.583Z,99027.02
2022-10-01T06:44:28.810Z,99026.30
2022-10-01T06:47:20.774Z,99021.52
2022-10-01T06:50:02.670Z,99019.92
2022-10-01T06:52:52.470Z,99013.77
2022-10-01T06:55:44.849Z,99013.55
2022-10-01T06:58:18.787Z,99019.91
2022-10-01T07:01:11.207Z,99018.64
2022-10-01T07:03:54.617Z,99021.08
2022-10-01T07:06:46.576Z,99024.20
2022-10-01T07:09:18.330Z,99026.44
2022-10-01T07:11:50.050Z,99025.98
2022-10-01T07:14:25.042Z,99027.55
2022-10-01T07:17:17.345Z,99022.51
2022-10-01T07:20:01.775Z,99013.95
2022-10-01T07:22:33.751Z,99008.59
2022-10-01T07:25:06.187Z,99009.47
2022-10-01T07:27:38.545Z,99012.17
2022-10-01T07:30:31.077Z,99016.70
2022-10-01T07:33:02.919Z,99010.59
2022-10-01T07:35:55.014Z,99010.90
2022-10-01T07:38:51.245Z,99011.08
2022-10-01T07:41:34.443Z,99016.27
2022-10-01T07:44:29.682Z,99005.47
2022-10-01T07:47:22.252Z,98999.66
2022-10-01T07:50:15.689Z,98992.41
2022-10-01T07:53:07.853Z,98990.88
2022-10-01T07:56:03.235Z,98989.09
2022-10-01T07:58:58.855Z,98991.48
2022-10-01T08:01:52.775Z,98991.05
2022-10-01T08:04:42.429Z,98985.36
2022-10-01T08:07:15.447Z,98977.99
2022-10-01T08:09:47.321Z,98970.48
2022-10-01T08:12:30.493Z,98963.33
2022-10-01T08:15:23.026Z,98959.14
2022-10-01T08:18:05.511Z,98963.00
2022-10-01T08:20:57.989Z,98958.13
2022-10-01T08:23:50.021Z,98958.93
2022-10-01T08:26:42.084Z,98955.02
2022-10-01T08:29:35.139Z,98957.25
2022-10-01T08:32:28.228Z,98951.65
2022-10-01T08:35:20.227Z,98947.39
2022-10-01T08:37:52.104Z,98940.42
2022-10-01T08:40:38.216Z,98941.64
2022-10-01T08:43:36.465Z,98940.23
2022-10-01T08:46:35.139Z,98944.34
2022-10-01T08:49:33.225Z,98943.19
2022-10-01T08:52:27.309Z,98941.23
2022-10-01T08:55:05.458Z,98941.04
2022-10-01T08:57:42.081Z,98936.31
2022-10-01T09:00:18.049Z,98938.45
2022-10-01T09:03:13.295Z,98939.82
2022-10-01T09:05:56.331Z,98939.77
2022-10-01T09:08:48.427Z,98931.52
2022-10-01T09:11:46.860Z,98928.94
2022-10-01T09:14:34.788Z,98936.22
2022-10-01T09:17:20.490Z,98932.64
2022-10-01T09:20:19.570Z,98929.76
2022-10-01T09:23:27.105Z,98926.55
2022-10-01T09:26:02.572Z,98918.11
2022-10-01T09:28:36.196Z,98914.87
2022-10-01T09:31:33.090Z,98914.68
2022-10-01T09:34:12.263Z,98911.80
2022-10-01T09:37:15.005Z,98907.48
2022-10-01T09:40:17.447Z,98909.16
2022-10-01T09:43:00.830Z,98905.52
2022-10-01T09:45:53.920Z,98904.48
2022-10-01T09:48:50.699Z,98903.05
2022-10-01T09:51:47.579Z,98899.09
2022-10-01T09:54:35.470Z,98895.30
2022-10-01T09:57:12.320Z,98888.36
2022-10-01T10:00:03.143Z,98885.38
2022-10-01T10:02:49.110Z,98877.66
2022-10-01T10:05:43.590Z,98873.88
2022-10-01T10:08:40.191Z,98867.03
2022-10-01T10:11:24.921Z,98861.98
2022-10-01T10:14:23.358Z,98866.69
2022-10-01T10:17:13.374Z,98866.44
2022-10-01T10:19:56.803Z,98866.83
2022-10-01T10:22:38.813Z,98865.15
2022-10-01T10:25:31.016Z,98861.55
2022-10-01T10:28:24.290Z,98856.20
2022-10-01T10:31:16.077Z,98849.78
2022-10-01T10:34:17.542Z,98841.44
2022-10-01T10:37:17.322Z,98840.10
2022-10-01T10:40:18.200Z,98834.86
2022-10-01T10:43:01.979Z,98826.13
2022-10-01T10:45:57.439Z,98819.02
2022-10-01T10:48:44.552Z,98811.68
2022-10-01T10:51:28.365Z,98811.75
2022-10-01T10:54:26.897Z,98810.77
2022-10-01T10:57:28.036Z,98809.27
2022-10-01T11:03:33.013Z,98797.32
2022-10-01T11:06:25.559Z,98794.07
2022-10-01T11:09:21.022Z,98789.98
2022-10-01T11:12:23.300Z,98787.71
2022-10-01T11:15:30.161Z,98784.10
2022-10-01T11:18:44.219Z,98778.39
2022-10-01T11:21:52.029Z,98768.51
2022-10-01T11:25:15.750Z,98771.61
2022-10-01T11:28:20.914Z,98768.80
2022-10-01T11:31:23.863Z,98763.78
2022-10-01T11:34:41.946Z,98762.95
2022-10-01T11:37:41.617Z,98754.95
2022-10-01T11:40:42.171Z,98749.27
2022-10-01T11:43:38.981Z,98752.58
2022-10-01T11:46:33.991Z,98748.65
2022-10-01T11:49:46.041Z,98745.06
2022-10-01T11:52:45.170Z,98740.91
2022-10-01T11:55:59.542Z,98740.31
2022-10-01T11:59:00.255Z,98736.21
2022-10-01T12:01:59.774Z,98736.20
2022-10-01T12:04:58.267Z,98728.10
2022-10-01T12:07:57.772Z,98721.05
2022-10-01T12:10:56.361Z,98714.67
2022-10-01T12:13:35.573Z,98715.23
2022-10-01T12:16:29.006Z,98716.85
2022-10-01T12:19:26.314Z,98712.91
2022-10-01T12:22:25.714Z,98706.20
2022-10-01T12:25:15.171Z,98695.36
2022-10-01T12:28:13.813Z,98688.84
2022-10-01T12:31:15.673Z,98682.13
2022-10-01T12:34:19.042Z,98676.05
2022-10-01T12:37:22.904Z,98675.08
2022-10-01T12:40:28.113Z,98671.46
2022-10-01T12:43:44.606Z,98671.84
2022-10-01T12:46:42.452Z,98670.71
2022-10-01T12:49:38.338Z,98670.20
2022-10-01T12:52:40.647Z,98661.59
2022-10-01T12:55:49.740Z,98656.05
2022-10-01T12:58:49.819Z,98646.91
2022-10-01T13:01:52.781Z,98651.77
2022-10-01T13:05:13.755Z,98650.39
2022-10-01T13:08:22.977Z,98645.40
2022-10-01T13:11:28.289Z,98641.25
2022-10-01T13:14:22.747Z,98634.12
2022-10-01T13:17:23.704Z,98624.52
2022-10-01T13:20:23.431Z,98626.46
2022-10-01T13:23:16.697Z,98613.86
2022-10-01T13:26:17.527Z,98614.20
2022-10-01T13:29:27.258Z,98605.90
2022-10-01T13:32:34.367Z,98604.08
2022-10-01T13:35:35.255Z,98597.76
2022-10-01T13:38:29.163Z,98592.44
2022-10-01T13:41:25.328Z,98587.36
2022-10-01T13:44:26.789Z,98584.92
2022-10-01T13:47:22.940Z,98580.06
2022-10-01T13:50:25.112Z,98579.38
2022-10-01T13:53:21.743Z,98579.69
2022-10-01T13:56:16.353Z,98578.10
2022-10-01T13:59:31.672Z,98571.07
2022-10-01T14:02:32.152Z,98566.90
2022-10-01T14:05:30.349Z,98562.45
2022-10-01T14:08:30.560Z,98553.66
2022-10-01T14:11:44.678Z,98548.35
2022-10-01T14:14:50.735Z,98538.54
2022-10-01T14:17:45.133Z,98535.79
2022-10-01T14:20:33.848Z,98532.14
2022-10-01T14:23:12.845Z,98530.60
2022-10-01T14:26:15.401Z,98531.19
2022-10-01T14:29:20.476Z,98525.73
2022-10-01T14:32:24.584Z,98521.86
2022-10-01T14:35:29.692Z,98522.86
2022-10-01T14:38:23.223Z,98520.66
2022-10-01T14:41:24.893Z,98517.89
2022-10-01T14:44:25.186Z,98508.95
2022-10-01T14:47:21.862Z,98500.73
2022-10-01T14:50:20.766Z,98492.85
2022-10-01T14:53:18.963Z,98495.27
2022-10-01T14:56:15.467Z,98487.08
2022-10-01T14:59:24.808Z,98480.63
2022-10-01T15:02:22.580Z,98471.70
2022-10-01T15:05:24.089Z,98467.19
2022-10-01T15:08:19.936Z,98459.07
2022-10-01T15:11:17.530Z,98459.58
2022-10-01T15:14:16.323Z,98459.98
2022-10-01T15:17:08.921Z,98451.03
2022-10-01T15:20:01.645Z,98444.89
2022-10-01T15:23:01.067Z,98442.15
2022-10-01T15:25:46.496Z,98432.69
2022-10-01T15:28:32.015Z,98421.15
2022-10-01T15:31:24.520Z,98414.00
2022-10-01T15:34:19.194Z,98412.49
2022-10-01T15:37:03.040Z,98411.38
2022-10-01T15:39:55.738Z,98410.40
2022-10-01T15:43:12.041Z,98412.58
2022-10-01T15:46:19.113Z,98404.52
2022-10-01T15:49:18.686Z,98399.13
2022-10-01T15:52:19.618Z,98388.89
2022-10-01T15:55:16.515Z,98384.55
2022-10-01T15:58:08.103Z,98383.28
2022-10-01T16:01:05.071Z,98383.63
2022-10-01T16:04:05.782Z,98384.55
2022-10-01T16:06:41.871Z,98379.67
2022-10-01T16:09:34.575Z,98373.96
2022-10-01T16:12:29.722Z,98369.39
2022-10-01T16:15:28.811Z,98366.78
2022-10-01T16:18:25.178Z,98366.84
2022-10-01T16:21:17.514Z,98360.60
2022-10-01T16:24:29.326Z,98353.81
2022-10-01T16:27:23.839Z,98351.50
2022-10-01T16:30:23.081Z,98341.66
2022-10-01T16:33:15.413Z,98335.56
2022-10-01T16:36:19.874Z,98336.54
2022-10-01T16:39:13.822Z,98338.24
2022-10-01T16:42:23.316Z,98336.80
2022-10-01T16:45:14.618Z,98339.04
2022-10-01T16:48:14.157Z,98334.84
2022-10-01T16:51:06.369Z,98336.30
2022-10-01T16:53:52.259Z,98330.20
2022-10-01T16:56:27.987Z,98332.07
2022-10-01T16:59:22.662Z,98332.54
2022-10-01T17:02:00.971Z,98333.63
2022-10-01T17:04:53.198Z,98324.67
2022-10-01T17:07:25.074Z,98318.34
2022-10-01T17:10:08.621Z,98322.52
2022-10-01T17:13:02.112Z,98326.84
2022-10-01T17:15:54.658Z,98326.14
2022-10-01T17:18:45.846Z,98330.52
2022-10-01T17:21:38.418Z,98333.17
2022-10-01T17:24:23.832Z,98330.02
2022-10-01T17:27:15.885Z,98322.75
2022-10-01T17:30:09.444Z,98323.02
2022-10-01T17:33:02.479Z,98320.55
2022-10-01T17:35:55.933Z,98315.34
2022-10-01T17:38:41.698Z,98309.78
2022-10-01T17:41:34.324Z,98321.64
2022-10-01T17:44:16.419Z,98333.83
2022-10-01T17:47:09.089Z,98334.17
2022-10-01T17:50:01.278Z,98339.09
2022-10-01T17:52:35.489Z,98343.84
2022-10-01T17:55:23.717Z,98346.89
2022-10-01T17:58:15.745Z,98345.24
2022-10-01T18:00:50.010Z,98348.26
2022-10-01T18:03:43.381Z,98343.15
2022-10-01T18:06:35.736Z,98336.35
2022-10-01T18:09:28.009Z,98339.28
2022-10-01T18:12:20.071Z,98334.80
2022-10-01T18:15:14.836Z,98336.39
2022-10-01T18:21:18.902Z,98347.10
2022-10-01T18:24:11.132Z,98345.16
2022-10-01T18:27:03.238Z,98349.02
2022-10-01T18:29:55.250Z,98342.24
2022-10-01T18:32:43.363Z,98343.54
2022-10-01T18:35:36.795Z,98342.77
2022-10-01T18:38:32.244Z,98346.20
2022-10-01T18:41:34.500Z,98349.73
2022-10-01T18:44:09.528Z,98353.34
2022-10-01T18:47:15.479Z,98353.61
2022-10-01T18:50:17.187Z,98352.70
2022-10-01T18:53:28.333Z,98352.89
2022-10-01T18:56:29.461Z,98356.38
2022-10-01T18:59:26.396Z,98355.73
2022-10-01T19:02:23.048Z,98353.64
2022-10-01T19:05:31.476Z,98351.73
2022-10-01T19:08:13.537Z,98349.41
2022-10-01T19:11:17.844Z,98350.88
2022-10-01T19:14:30.474Z,98359.27
2022-10-01T19:17:46.513Z,98365.08
2022-10-01T19:20:52.347Z,98373.45
2022-10-01T19:24:05.226Z,98381.84
2022-10-01T19:27:05.609Z,98376.40
2022-10-01T19:30:10.796Z,98373.73
2022-10-01T19:33:06.214Z,98370.70
2022-10-01T19:35:53.299Z,98361.96
2022-10-01T19:38:33.703Z,98351.75
2022-10-01T19:41:24.391Z,98337.73
2022-10-01T19:44:20.479Z,98323.77
2022-10-01T19:47:30.250Z,98316.86
2022-10-01T19:50:22.764Z,98316.34
2022-10-01T19:53:22.895Z,98319.34
2022-10-01T19:56:19.395Z,98315.73
2022-10-01T19:59:14.646Z,98319.00
2022-10-01T20:02:15.204Z,98328.88
2022-10-01T20:05:11.249Z,98334.40
2022-10-01T20:08:04.833Z,98330.75
2022-10-01T20:10:49.679Z,98330.27
2022-10-01T20:14:07.188Z,98330.89
2022-10-01T20:16:58.012Z,98330.67
2022-10-01T20:19:59.762Z,98344.27
2022-10-01T20:23:01.094Z,98348.00
2022-10-01T20:26:03.816Z,98351.09
2022-10-01T20:29:13.516Z,98348.55
2022-10-01T20:32:10.539Z,98344.27
2022-10-01T20:34:52.304Z,98346.50
2022-10-01T20:37:56.767Z,98347.06
2022-10-01T20:40:30.964Z,98347.64
2022-10-01T20:43:32.065Z,98348.01
2022-10-01T20:46:32.725Z,98350.34
2022-10-01T20:49:31.373Z,98353.91
2022-10-01T20:52:34.304Z,98352.77
2022-10-01T20:55:13.321Z,98352.31
2022-10-01T20:58:10.993Z,98352.07
2022-10-01T21:00:45.870Z,98348.27
2022-10-01T21:03:41.807Z,98353.45
2022-10-01T21:06:16.691Z,98355.64
2022-10-01T21:09:09.105Z,98356.94
2022-10-01T21:11:57.684Z,98357.95
2022-10-01T21:14:46.821Z,98357.48
2022-10-01T21:17:47.403Z,98356.85
2022-10-01T21:20:45.170Z,98357.93
2022-10-01T21:23:57.870Z,98352.72
2022-10-01T21:27:00.427Z,98357.40
2022-10-01T21:30:06.026Z,98357.90
2022-10-01T21:33:15.555Z,98359.74
2022-10-01T21:36:19.464Z,98358.73
2022-10-01T21:39:19.421Z,98358.07
2022-10-01T21:42:17.843Z,98355.64
2022-10-01T21:45:23.933Z,98355.69
2022-10-01T21:48:28.352Z,98359.48
2022-10-01T21:51:22.945Z,98360.91
2022-10-01T21:54:46.010Z,98364.20
2022-10-01T21:58:03.283Z,98367.48
2022-10-01T22:01:08.266Z,98368.19
2022-10-01T22:04:07.420Z,98374.95
2022-10-01T22:07:06.182Z,98381.78
2022-10-01T22:10:09.367Z,98400.25
2022-10-01T22:13:07.580Z,98399.96
2022-10-01T22:16:03.291Z,98395.94
2022-10-01T22:18:58.846Z,98411.85
2022-10-01T22:21:38.388Z,98418.66
2022-10-01T22:24:34.670Z,98421.41
2022-10-01T22:27:33.244Z,98428.23
2022-10-01T22:30:28.925Z,98436.02
2022-10-01T22:33:18.342Z,98445.02
2022-10-01T22:36:15.680Z,98456.48
2022-10-01T22:39:13.713Z,98462.81
2022-10-01T22:42:11.918Z,98467.88
2022-10-01T22:45:10.521Z,98479.36
2022-10-01T22:48:17.972Z,98482.18
2022-10-01T22:51:26.610Z,98486.30
2022-10-01T22:54:31.311Z,98489.34
2022-10-01T22:57:39.807Z,98487.02
2022-10-01T23:00:38.449Z,98493.87
2022-10-01T23:03:50.575Z,98505.55
2022-10-01T23:06:49.864Z,98503.52
2022-10-01T23:09:51.539Z,98504.45
2022-10-01T23:12:35.524Z,98507.13
2022-10-01T23:15:36.048Z,98511.14
2022-10-01T23:18:42.600Z,98511.08
2022-10-01T23:21:36.254Z,98513.04
2022-10-01T23:24:43.401Z,98518.61
2022-10-01T23:27:33.531Z,98511.30
2022-10-01T23:30:25.744Z,98512.92
2022-10-01T23:33:35.082Z,98519.36
2022-10-01T23:36:43.528Z,98518.85
2022-10-01T23:39:41.750Z,98523.94
2022-10-01T23:42:40.680Z,98527.80
2022-10-01T23:45:39.511Z,98526.74
2022-10-01T23:48:38.953Z,98528.95
2022-10-01T23:51:37.287Z,98532.42
2022-10-01T23:54:37.238Z,98533.32
2022-10-01T23:57:32.990Z,98531.73
